Time;durP1;ratioP1;P1;durP2;ratioP2;P2;SDS_P1;SDS_P2;PMS_P1;PMS_P2;Temp;Humidity;BMP_temperature;BMP_pressure;BME280_temperature;BME280_humidity;BME280_pressure;Samples;Min_cycle;Max_cycle;Signal;HPM_P1;HPM_P2
2022/06/15 00:01:08;;;;;;;9.37;4.80;;;;;;;;;;5052431;28;20543;-78
2022/06/15 00:03:37;;;;;;;5.00;4.50;;;;;;;;;;5052103;28;20499;-78
2022/06/15 00:06:07;;;;;;;9.03;5.30;;;;;;;;;;5052803;28;20485;-78
2022/06/15 00:08:34;;;;;;;4.73;4.33;;;;;;;;;;5052005;28;20445;-77
2022/06/15 00:11:04;;;;;;;4.70;4.40;;;;;;;;;;5052197;28;20473;-78
2022/06/15 00:13:31;;;;;;;6.37;4.40;;;;;;;;;;5052011;28;20481;-77
2022/06/15 00:15:58;;;;;;;5.50;4.90;;;;;;;;;;5052289;28;20770;-76
2022/06/15 00:18:28;;;;;;;8.43;4.90;;;;;;;;;;5052009;28;20445;-77
2022/06/15 00:20:55;;;;;;;5.13;4.60;;;;;;;;;;5051877;28;20470;-76
2022/06/15 00:23:23;;;;;;;4.73;4.30;;;;;;;;;;5051806;28;20523;-77
2022/06/15 00:25:51;;;;;;;9.23;5.00;;;;;;;;;;5052230;28;20445;-78
2022/06/15 00:28:18;;;;;;;5.47;4.97;;;;;;;;;;5051921;28;20507;-78
2022/06/15 00:30:45;;;;;;;6.53;4.37;;;;;;;;;;5052095;28;20466;-77
2022/06/15 00:33:13;;;;;;;10.17;5.17;;;;;;;;;;5053114;28;21066;-78
2022/06/15 00:35:40;;;;;;;5.87;5.37;;;;;;;;;;5059131;28;20449;-76
2022/06/15 00:38:08;;;;;;;5.13;4.60;;;;;;;;;;5057852;28;20491;-78
2022/06/15 00:40:36;;;;;;;4.83;4.23;;;;;;;;;;5051837;28;20839;-77
2022/06/15 00:43:03;;;;;;;4.87;4.47;;;;;;;;;;5051578;28;20476;-77
2022/06/15 00:45:31;;;;;;;5.23;4.83;;;;;;;;;;5051442;28;20454;-77
2022/06/15 00:47:58;;;;;;;5.40;5.00;;;;;;;;;;5051789;28;20449;-77
2022/06/15 00:50:26;;;;;;;5.50;4.33;;;;;;;;;;5051676;28;20524;-77
2022/06/15 00:52:56;;;;;;;5.20;4.80;;;;;;;;;;5051092;28;20481;-77
2022/06/15 00:55:25;;;;;;;5.93;5.43;;;;;;;;;;5051452;28;20438;-77
2022/06/15 00:57:53;;;;;;;6.27;5.73;;;;;;;;;;5051397;28;20464;-76
2022/06/15 01:00:21;;;;;;;5.60;5.10;;;;;;;;;;5051754;28;20466;-77
2022/06/15 01:02:49;;;;;;;5.00;4.60;;;;;;;;;;5051032;28;20453;-79
2022/06/15 01:05:17;;;;;;;5.37;4.93;;;;;;;;;;5051318;28;20449;-78
2022/06/15 01:08:18;;;;;;;6.33;4.90;;;;;;;;;;5051493;28;20487;-77
2022/06/15 01:10:53;;;;;;;5.00;4.60;;;;;;;;;;4970288;28;20469;-78
2022/06/15 01:13:30;;;;;;;6.00;5.40;;;;;;;;;;4969943;28;20484;-77
2022/06/15 01:16:01;;;;;;;5.70;5.20;;;;;;;;;;5016031;28;20449;-77
2022/06/15 01:18:33;;;;;;;5.57;5.07;;;;;;;;;;5051486;28;20434;-77
2022/06/15 01:21:07;;;;;;;5.60;5.17;;;;;;;;;;5051296;28;20527;-77
2022/06/15 01:23:52;;;;;;;5.70;5.20;;;;;;;;;;5050956;28;20503;-77
2022/06/15 01:26:34;;;;;;;6.20;5.60;;;;;;;;;;5051630;28;20896;-77
2022/06/15 01:29:10;;;;;;;5.70;5.30;;;;;;;;;;5007653;28;20437;-77
2022/06/15 01:31:41;;;;;;;5.47;5.07;;;;;;;;;;5050887;28;20463;-77
2022/06/15 01:34:12;;;;;;;5.30;4.80;;;;;;;;;;5051214;28;21012;-77
2022/06/15 01:36:44;;;;;;;5.43;4.93;;;;;;;;;;5051306;28;20441;-77
2022/06/15 01:39:13;;;;;;;5.63;5.03;;;;;;;;;;5051171;28;20750;-77
2022/06/15 01:41:43;;;;;;;5.53;5.03;;;;;;;;;;5051023;28;20441;-77
2022/06/15 01:44:13;;;;;;;5.00;4.60;;;;;;;;;;5050805;28;20495;-77
2022/06/15 01:46:43;;;;;;;7.90;5.07;;;;;;;;;;5051058;28;20848;-77
2022/06/15 01:49:14;;;;;;;5.70;5.20;;;;;;;;;;5052984;28;20855;-77
2022/06/15 01:51:43;;;;;;;7.70;5.17;;;;;;;;;;5054857;28;20460;-77
2022/06/15 01:54:13;;;;;;;5.43;5.00;;;;;;;;;;5054240;28;20934;-76
2022/06/15 01:56:42;;;;;;;7.57;5.47;;;;;;;;;;5054421;28;20939;-77
2022/06/15 01:59:12;;;;;;;5.27;4.97;;;;;;;;;;5054284;28;20437;-77
2022/06/15 02:01:42;;;;;;;5.73;5.33;;;;;;;;;;5054264;28;20448;-76
2022/06/15 02:04:15;;;;;;;5.60;5.20;;;;;;;;;;5054298;28;20453;-77
2022/06/15 02:06:47;;;;;;;7.53;6.40;;;;;;;;;;5054809;28;20433;-77
2022/06/15 02:09:17;;;;;;;6.30;5.80;;;;;;;;;;5054102;28;20445;-76
2022/06/15 02:11:44;;;;;;;11.13;6.10;;;;;;;;;;5054345;28;20508;-76
2022/06/15 02:14:16;;;;;;;6.40;5.90;;;;;;;;;;5053676;28;20558;-76
2022/06/15 02:16:45;;;;;;;6.67;5.13;;;;;;;;;;5054416;28;20491;-77
2022/06/15 02:19:17;;;;;;;5.90;5.50;;;;;;;;;;5054423;28;20491;-77
2022/06/15 02:21:46;;;;;;;6.70;6.10;;;;;;;;;;5054257;28;20449;-76
2022/06/15 02:24:14;;;;;;;5.97;5.40;;;;;;;;;;5054077;28;20433;-77
2022/06/15 02:26:42;;;;;;;7.13;6.43;;;;;;;;;;5053906;28;20941;-76
2022/06/15 02:29:14;;;;;;;9.70;6.23;;;;;;;;;;5053856;28;20971;-77
2022/06/15 02:31:42;;;;;;;7.27;6.57;;;;;;;;;;5054275;28;20495;-76
2022/06/15 02:34:09;;;;;;;6.60;6.00;;;;;;;;;;5053956;28;20523;-77
2022/06/15 02:36:37;;;;;;;6.33;5.73;;;;;;;;;;5054108;28;20452;-77
2022/06/15 02:39:05;;;;;;;7.80;5.33;;;;;;;;;;5053719;28;20861;-77
2022/06/15 02:41:33;;;;;;;6.70;6.17;;;;;;;;;;5053811;28;20465;-77
2022/06/15 02:44:01;;;;;;;6.43;5.90;;;;;;;;;;5053341;28;20458;-76
2022/06/15 02:46:31;;;;;;;5.90;5.40;;;;;;;;;;5054012;28;20449;-77
2022/06/15 02:48:58;;;;;;;8.40;6.10;;;;;;;;;;5053572;28;20449;-76
2022/06/15 02:51:28;;;;;;;9.53;6.00;;;;;;;;;;5053617;28;20547;-77
2022/06/15 02:53:58;;;;;;;9.10;8.30;;;;;;;;;;5053306;28;20486;-76
2022/06/15 02:56:26;;;;;;;7.80;7.20;;;;;;;;;;5053512;28;20445;-77
2022/06/15 02:58:57;;;;;;;7.90;5.93;;;;;;;;;;5053400;28;20476;-77
2022/06/15 03:01:24;;;;;;;7.43;5.80;;;;;;;;;;5052566;28;20799;-77
2022/06/15 03:03:51;;;;;;;6.27;5.77;;;;;;;;;;5052711;28;20507;-76
2022/06/15 03:06:19;;;;;;;11.50;6.80;;;;;;;;;;5053384;28;20453;-76
2022/06/15 03:08:46;;;;;;;6.13;5.60;;;;;;;;;;5053106;28;20442;-77
2022/06/15 03:11:15;;;;;;;6.97;6.37;;;;;;;;;;5053273;28;20544;-77
2022/06/15 03:13:42;;;;;;;6.37;5.97;;;;;;;;;;5052850;28;20535;-76
2022/06/15 03:16:10;;;;;;;7.20;6.47;;;;;;;;;;5053102;28;20446;-76
2022/06/15 03:18:37;;;;;;;6.53;5.97;;;;;;;;;;5052861;28;20495;-77
2022/06/15 03:21:04;;;;;;;7.40;6.80;;;;;;;;;;5053050;28;20539;-76
2022/06/15 03:23:32;;;;;;;6.03;5.43;;;;;;;;;;5052831;28;20477;-77
2022/06/15 03:26:00;;;;;;;6.90;5.53;;;;;;;;;;5052872;28;20491;-77
2022/06/15 03:28:29;;;;;;;9.27;5.93;;;;;;;;;;5052969;28;20438;-78
2022/06/15 03:30:57;;;;;;;6.43;5.83;;;;;;;;;;5052979;28;20638;-78
2022/06/15 03:33:24;;;;;;;7.43;5.83;;;;;;;;;;5052553;28;20492;-77
2022/06/15 03:35:51;;;;;;;6.40;5.80;;;;;;;;;;5052826;28;20441;-77
2022/06/15 03:38:18;;;;;;;7.53;6.30;;;;;;;;;;5052773;28;20499;-76
2022/06/15 03:40:46;;;;;;;6.90;6.30;;;;;;;;;;5052776;28;20500;-77
2022/06/15 03:43:13;;;;;;;5.70;5.13;;;;;;;;;;5052341;28;20929;-77
2022/06/15 03:45:43;;;;;;;6.17;5.63;;;;;;;;;;5052261;28;20487;-76
2022/06/15 03:48:10;;;;;;;6.10;5.50;;;;;;;;;;5052781;28;20484;-78
2022/06/15 03:50:37;;;;;;;6.80;6.20;;;;;;;;;;5052505;28;21036;-76
2022/06/15 03:53:05;;;;;;;6.60;6.10;;;;;;;;;;5052173;28;20519;-76
2022/06/15 03:55:32;;;;;;;6.73;6.07;;;;;;;;;;5052498;28;20503;-77
2022/06/15 03:57:59;;;;;;;6.17;5.60;;;;;;;;;;5052334;28;20507;-77
2022/06/15 04:00:28;;;;;;;7.10;6.10;;;;;;;;;;5052621;28;20527;-77
2022/06/15 04:02:56;;;;;;;9.50;5.57;;;;;;;;;;5052097;28;20446;-77
2022/06/15 04:05:25;;;;;;;6.33;5.83;;;;;;;;;;5051944;28;20865;-77
2022/06/15 04:10:37;;;;;;;5.70;5.20;;;;;;;;;;5051999;28;20433;-76
2022/06/15 04:13:04;;;;;;;6.57;5.70;;;;;;;;;;5051339;28;20892;-77
2022/06/15 04:15:31;;;;;;;6.17;5.57;;;;;;;;;;5051843;28;20507;-77
2022/06/15 04:18:00;;;;;;;6.50;5.90;;;;;;;;;;5052064;28;20445;-77
2022/06/15 04:20:35;;;;;;;6.43;5.93;;;;;;;;;;5052086;28;20870;-77
2022/06/15 04:23:02;;;;;;;7.30;6.70;;;;;;;;;;5051822;28;20885;-76
2022/06/15 04:25:29;;;;;;;9.47;6.20;;;;;;;;;;5051980;28;20450;-77
2022/06/15 04:27:56;;;;;;;9.93;6.37;;;;;;;;;;5044238;28;20445;-78
2022/06/15 04:30:24;;;;;;;6.17;5.57;;;;;;;;;;5047905;28;20461;-77
2022/06/15 04:32:51;;;;;;;6.40;5.80;;;;;;;;;;5051350;28;20474;-77
2022/06/15 04:35:19;;;;;;;7.67;6.50;;;;;;;;;;5051933;28;20468;-77
2022/06/15 04:37:46;;;;;;;7.23;6.53;;;;;;;;;;5051506;28;20445;-77
2022/06/15 04:40:14;;;;;;;7.63;6.57;;;;;;;;;;5051743;28;20466;-77
2022/06/15 04:42:41;;;;;;;6.90;6.10;;;;;;;;;;5051385;28;20457;-77
2022/06/15 04:45:09;;;;;;;7.63;6.17;;;;;;;;;;5051660;28;20457;-77
2022/06/15 04:47:36;;;;;;;6.87;6.27;;;;;;;;;;5051738;28;20540;-77
2022/06/15 04:50:03;;;;;;;7.70;6.40;;;;;;;;;;5051547;28;20480;-78
2022/06/15 04:52:31;;;;;;;6.40;5.80;;;;;;;;;;5051612;28;20503;-78
2022/06/15 04:54:58;;;;;;;7.20;6.50;;;;;;;;;;5051597;28;20485;-77
2022/06/15 04:57:25;;;;;;;6.93;6.27;;;;;;;;;;5051704;28;20825;-77
2022/06/15 04:59:52;;;;;;;9.03;5.70;;;;;;;;;;5051486;28;20515;-77
2022/06/15 05:02:19;;;;;;;7.13;6.40;;;;;;;;;;5051383;28;20457;-77
2022/06/15 05:04:46;;;;;;;7.90;7.10;;;;;;;;;;5051671;28;20442;-77
2022/06/15 05:07:13;;;;;;;7.80;6.43;;;;;;;;;;5051471;28;20976;-79
2022/06/15 05:09:47;;;;;;;6.87;6.27;;;;;;;;;;5051784;28;20461;-77
2022/06/15 05:12:14;;;;;;;7.70;6.33;;;;;;;;;;5051972;28;20434;-77
2022/06/15 05:14:41;;;;;;;7.77;6.80;;;;;;;;;;5051042;28;20638;-77
2022/06/15 05:17:08;;;;;;;7.47;6.67;;;;;;;;;;5051252;28;20446;-77
2022/06/15 05:19:35;;;;;;;16.10;7.93;;;;;;;;;;5051221;28;20872;-78
2022/06/15 05:22:02;;;;;;;10.50;8.27;;;;;;;;;;5051591;28;20503;-77
2022/06/15 05:24:29;;;;;;;9.80;7.57;;;;;;;;;;5053713;28;20818;-77
2022/06/15 05:26:57;;;;;;;11.63;7.70;;;;;;;;;;5055729;28;20445;-77
2022/06/15 05:29:25;;;;;;;10.23;8.20;;;;;;;;;;5055492;28;20487;-77
2022/06/15 05:31:52;;;;;;;9.70;7.90;;;;;;;;;;5054859;28;20464;-77
2022/06/15 05:34:19;;;;;;;9.90;8.20;;;;;;;;;;5054865;28;20565;-78
2022/06/15 05:36:46;;;;;;;12.97;8.30;;;;;;;;;;5055551;28;20449;-77
2022/06/15 05:39:13;;;;;;;11.20;7.13;;;;;;;;;;5056833;28;20450;-77
2022/06/15 05:41:40;;;;;;;11.07;8.10;;;;;;;;;;5055356;28;20441;-77
2022/06/15 05:44:09;;;;;;;11.97;6.93;;;;;;;;;;5057626;28;20986;-76
2022/06/15 05:46:39;;;;;;;11.40;8.47;;;;;;;;;;5058023;28;20536;-77
2022/06/15 05:49:07;;;;;;;7.80;7.03;;;;;;;;;;5055820;28;20848;-77
2022/06/15 05:51:34;;;;;;;15.17;9.00;;;;;;;;;;5055776;28;20465;-78
2022/06/15 05:54:01;;;;;;;10.87;9.20;;;;;;;;;;5055282;28;20538;-77
2022/06/15 05:56:28;;;;;;;9.30;8.37;;;;;;;;;;5054717;28;20522;-77
2022/06/15 05:58:55;;;;;;;10.17;7.80;;;;;;;;;;5054601;28;21023;-77
2022/06/15 06:01:25;;;;;;;7.80;6.90;;;;;;;;;;5054734;28;20531;-76
2022/06/15 06:03:52;;;;;;;8.90;6.27;;;;;;;;;;5054059;28;20984;-77
2022/06/15 06:06:19;;;;;;;7.53;6.53;;;;;;;;;;5054605;28;20498;-78
2022/06/15 06:08:46;;;;;;;10.33;6.83;;;;;;;;;;5054602;28;20471;-77
2022/06/15 06:11:13;;;;;;;10.07;7.60;;;;;;;;;;5054393;28;20519;-77
2022/06/15 06:13:41;;;;;;;9.47;7.53;;;;;;;;;;5053766;28;20527;-77
2022/06/15 06:16:08;;;;;;;8.53;6.70;;;;;;;;;;5054238;28;20988;-77
2022/06/15 06:18:37;;;;;;;9.70;7.50;;;;;;;;;;5054093;28;20437;-77
2022/06/15 06:21:05;;;;;;;10.40;6.80;;;;;;;;;;5053868;28;20515;-77
2022/06/15 06:23:32;;;;;;;10.40;7.30;;;;;;;;;;5053828;28;20449;-77
2022/06/15 06:25:59;;;;;;;14.27;7.20;;;;;;;;;;5053815;28;20441;-77
2022/06/15 06:28:27;;;;;;;10.20;6.70;;;;;;;;;;5054101;28;20495;-77
2022/06/15 06:30:54;;;;;;;8.03;6.70;;;;;;;;;;5053984;28;20464;-77
2022/06/15 06:33:21;;;;;;;7.17;5.70;;;;;;;;;;5053733;28;20503;-77
2022/06/15 06:35:50;;;;;;;8.40;6.30;;;;;;;;;;5053720;28;20444;-77
2022/06/15 06:38:17;;;;;;;6.80;6.20;;;;;;;;;;5053701;28;20446;-77
2022/06/15 06:40:44;;;;;;;6.27;5.77;;;;;;;;;;5053469;28;20461;-77
2022/06/15 06:43:11;;;;;;;8.13;6.63;;;;;;;;;;5054104;28;20441;-76
2022/06/15 06:45:38;;;;;;;6.93;6.23;;;;;;;;;;5053427;28;20522;-76
2022/06/15 06:48:05;;;;;;;6.70;6.10;;;;;;;;;;5053580;28;20441;-76
2022/06/15 06:50:34;;;;;;;8.63;6.77;;;;;;;;;;5053797;28;20458;-77
2022/06/15 06:53:03;;;;;;;7.73;5.80;;;;;;;;;;5053280;28;20866;-78
2022/06/15 06:55:30;;;;;;;7.23;6.00;;;;;;;;;;5053434;28;20489;-77
2022/06/15 06:57:57;;;;;;;12.13;6.30;;;;;;;;;;5053484;28;20450;-77
2022/06/15 07:00:25;;;;;;;7.70;7.00;;;;;;;;;;5053352;28;20469;-77
2022/06/15 07:02:52;;;;;;;11.13;6.23;;;;;;;;;;5053825;28;20507;-76
2022/06/15 07:05:19;;;;;;;6.40;5.77;;;;;;;;;;5053341;28;20495;-77
2022/06/15 07:07:47;;;;;;;6.87;6.17;;;;;;;;;;5052497;28;20883;-78
2022/06/15 07:10:15;;;;;;;6.60;6.03;;;;;;;;;;5055137;28;20879;-77
2022/06/15 07:12:43;;;;;;;10.33;6.47;;;;;;;;;;5054950;28;20476;-77
2022/06/15 07:15:11;;;;;;;6.17;5.67;;;;;;;;;;5058701;28;20482;-76
2022/06/15 07:17:38;;;;;;;6.17;5.57;;;;;;;;;;5059091;28;20533;-77
2022/06/15 07:20:06;;;;;;;6.43;5.80;;;;;;;;;;5059578;28;20461;-76
2022/06/15 07:22:33;;;;;;;7.93;5.50;;;;;;;;;;5059951;28;20441;-76
2022/06/15 07:25:00;;;;;;;8.63;5.80;;;;;;;;;;5059622;28;20437;-76
2022/06/15 07:27:29;;;;;;;6.83;5.60;;;;;;;;;;5054403;28;20441;-76
2022/06/15 07:29:58;;;;;;;7.20;5.47;;;;;;;;;;5053224;28;20465;-77
2022/06/15 07:32:25;;;;;;;9.10;6.10;;;;;;;;;;5053467;28;20454;-77
2022/06/15 07:34:52;;;;;;;6.77;5.97;;;;;;;;;;5052496;28;20474;-77
2022/06/15 07:37:19;;;;;;;5.80;5.03;;;;;;;;;;5053447;28;20532;-77
2022/06/15 07:39:46;;;;;;;5.77;5.17;;;;;;;;;;5053272;28;20469;-77
2022/06/15 07:42:13;;;;;;;8.13;5.03;;;;;;;;;;5052719;28;20500;-77
2022/06/15 07:44:42;;;;;;;6.53;5.10;;;;;;;;;;5052512;28;20499;-77
2022/06/15 07:49:58;;;;;;;6.97;5.20;;;;;;;;;;5052979;28;20432;-77
2022/06/15 07:52:26;;;;;;;8.97;5.37;;;;;;;;;;5052955;28;20473;-77
2022/06/15 07:54:53;;;;;;;6.63;4.60;;;;;;;;;;5052438;28;20580;-77
2022/06/15 07:57:20;;;;;;;5.33;4.90;;;;;;;;;;5052890;28;20441;-77
2022/06/15 07:59:48;;;;;;;5.73;5.10;;;;;;;;;;5052611;28;20464;-77
2022/06/15 08:02:16;;;;;;;6.40;5.63;;;;;;;;;;5052465;28;20519;-78
2022/06/15 08:04:43;;;;;;;6.07;4.40;;;;;;;;;;5052327;28;20442;-78
2022/06/15 08:07:11;;;;;;;5.13;4.73;;;;;;;;;;5052476;28;20460;-77
2022/06/15 08:09:38;;;;;;;5.00;4.10;;;;;;;;;;5052211;28;20468;-77
2022/06/15 08:12:12;;;;;;;5.23;4.73;;;;;;;;;;5052381;28;20441;-76
2022/06/15 08:14:41;;;;;;;5.90;4.57;;;;;;;;;;5052326;28;20469;-76
2022/06/15 08:17:10;;;;;;;5.57;4.97;;;;;;;;;;5052638;28;20815;-78
2022/06/15 08:19:39;;;;;;;5.33;4.60;;;;;;;;;;5052099;28;20842;-77
2022/06/15 08:22:06;;;;;;;4.90;4.53;;;;;;;;;;5052227;28;20491;-77
2022/06/15 08:24:33;;;;;;;8.13;4.60;;;;;;;;;;5048345;28;20445;-77
2022/06/15 08:27:01;;;;;;;4.40;4.07;;;;;;;;;;5044504;28;20843;-77
2022/06/15 08:29:28;;;;;;;7.70;4.80;;;;;;;;;;5052594;28;20450;-77
2022/06/15 08:31:57;;;;;;;9.00;5.27;;;;;;;;;;5052375;28;20445;-78
2022/06/15 08:34:25;;;;;;;7.73;5.00;;;;;;;;;;5052289;28;20564;-76
2022/06/15 08:36:52;;;;;;;5.77;5.27;;;;;;;;;;5052637;28;20449;-78
2022/06/15 08:39:20;;;;;;;5.07;4.53;;;;;;;;;;5051923;28;20553;-78
2022/06/15 08:41:50;;;;;;;6.70;4.60;;;;;;;;;;5052603;28;20438;-78
2022/06/15 08:44:23;;;;;;;6.57;4.57;;;;;;;;;;5051518;28;20458;-77
2022/06/15 08:46:52;;;;;;;7.23;5.10;;;;;;;;;;5051753;28;20449;-77
2022/06/15 08:49:29;;;;;;;4.50;4.10;;;;;;;;;;5051907;28;20445;-78
2022/06/15 08:51:58;;;;;;;5.20;4.70;;;;;;;;;;5052493;28;20468;-77
2022/06/15 08:54:28;;;;;;;5.60;5.10;;;;;;;;;;5051915;28;20473;-77
2022/06/15 08:56:59;;;;;;;5.80;4.77;;;;;;;;;;5051947;28;20819;-77
2022/06/15 08:59:29;;;;;;;5.73;4.50;;;;;;;;;;5051452;28;20544;-78
2022/06/15 09:01:59;;;;;;;5.87;4.60;;;;;;;;;;5052226;28;20449;-78
2022/06/15 09:04:34;;;;;;;6.37;4.47;;;;;;;;;;5051404;28;20976;-78
2022/06/15 09:07:06;;;;;;;6.67;4.50;;;;;;;;;;5052252;28;20984;-79
2022/06/15 09:09:40;;;;;;;11.03;5.30;;;;;;;;;;5052847;28;20476;-78
2022/06/15 09:15:02;;;;;;;4.87;4.33;;;;;;;;;;5063288;28;20467;-78
2022/06/15 09:17:29;;;;;;;4.90;4.43;;;;;;;;;;5052338;28;21057;-78
2022/06/15 09:20:02;;;;;;;6.37;4.60;;;;;;;;;;5052646;28;20469;-78
2022/06/15 09:22:30;;;;;;;5.10;4.70;;;;;;;;;;5052210;28;20448;-78
2022/06/15 09:25:01;;;;;;;5.40;4.60;;;;;;;;;;5051711;28;20514;-77
2022/06/15 09:27:30;;;;;;;5.73;5.13;;;;;;;;;;5052333;28;20464;-78
2022/06/15 09:29:58;;;;;;;4.90;4.03;;;;;;;;;;5052389;28;20539;-79
2022/06/15 09:32:30;;;;;;;4.80;4.33;;;;;;;;;;5047812;28;20471;-78
2022/06/15 09:35:01;;;;;;;5.27;4.30;;;;;;;;;;5051273;28;21016;-78
2022/06/15 09:37:30;;;;;;;5.83;5.00;;;;;;;;;;5051591;28;20454;-78
2022/06/15 09:39:58;;;;;;;8.77;4.47;;;;;;;;;;5050935;28;20538;-78
2022/06/15 09:42:28;;;;;;;5.60;5.00;;;;;;;;;;5051271;28;20655;-77
2022/06/15 09:44:59;;;;;;;4.83;4.37;;;;;;;;;;5051030;28;20449;-78
2022/06/15 09:47:33;;;;;;;5.47;3.90;;;;;;;;;;5051315;28;20972;-78
2022/06/15 09:50:07;;;;;;;5.60;4.60;;;;;;;;;;5050779;28;20964;-78
2022/06/15 09:52:41;;;;;;;4.67;4.10;;;;;;;;;;5050933;28;20537;-80
2022/06/15 09:55:10;;;;;;;4.93;4.43;;;;;;;;;;5050979;28;21018;-77
2022/06/15 09:57:38;;;;;;;5.07;4.57;;;;;;;;;;5049937;28;20449;-77
2022/06/15 10:00:06;;;;;;;4.03;3.73;;;;;;;;;;5050182;28;20469;-78
2022/06/15 10:02:35;;;;;;;4.73;4.13;;;;;;;;;;5050895;28;20445;-78
2022/06/15 10:05:05;;;;;;;4.33;4.00;;;;;;;;;;5050930;28;20510;-78
2022/06/15 10:07:35;;;;;;;4.93;3.90;;;;;;;;;;5051934;28;20445;-79
2022/06/15 10:10:03;;;;;;;4.50;4.10;;;;;;;;;;5053199;28;20461;-78
2022/06/15 10:12:57;;;;;;;4.20;3.80;;;;;;;;;;5055068;28;20492;-78
2022/06/15 10:15:25;;;;;;;4.80;4.40;;;;;;;;;;5054702;28;20473;-78
2022/06/15 10:17:54;;;;;;;5.33;3.90;;;;;;;;;;5054494;28;20479;-78
2022/06/15 10:20:26;;;;;;;4.60;4.20;;;;;;;;;;5054617;28;20469;-78
2022/06/15 10:22:54;;;;;;;4.83;3.90;;;;;;;;;;5055984;28;20549;-78
2022/06/15 10:25:23;;;;;;;4.03;3.73;;;;;;;;;;5058614;28;20920;-78
2022/06/15 10:27:51;;;;;;;4.33;4.03;;;;;;;;;;5057967;28;20476;-78
2022/06/15 10:30:19;;;;;;;5.10;4.27;;;;;;;;;;5057510;28;20469;-80
2022/06/15 10:33:00;;;;;;;5.47;3.83;;;;;;;;;;5057363;28;20437;-79
2022/06/15 10:35:30;;;;;;;5.10;4.70;;;;;;;;;;5059879;28;20477;-79
2022/06/15 10:37:58;;;;;;;5.73;4.33;;;;;;;;;;5057174;28;20853;-80
2022/06/15 10:40:29;;;;;;;4.80;4.40;;;;;;;;;;5060368;28;20999;-80
2022/06/15 10:42:57;;;;;;;5.23;4.00;;;;;;;;;;5060796;28;20454;-79
2022/06/15 10:45:26;;;;;;;4.03;3.70;;;;;;;;;;5060029;28;20473;-79
2022/06/15 10:47:56;;;;;;;4.70;4.27;;;;;;;;;;5059965;28;20485;-78
2022/06/15 10:50:26;;;;;;;4.07;3.77;;;;;;;;;;5059543;28;20497;-78
2022/06/15 10:52:57;;;;;;;5.20;4.10;;;;;;;;;;5061349;28;20457;-79
2022/06/15 11:04:15;;;;;;;3.27;3.07;;;;;;;;;;5059347;28;20405;-81
2022/06/15 11:06:44;;;;;;;4.27;3.33;;;;;;;;;;5059496;28;20460;-79
2022/06/15 11:09:21;;;;;;;4.83;3.77;;;;;;;;;;5060244;28;20437;-80
2022/06/15 11:11:49;;;;;;;4.13;3.67;;;;;;;;;;5059667;28;20520;-79
2022/06/15 11:14:19;;;;;;;3.57;3.30;;;;;;;;;;5058431;28;20442;-80
2022/06/15 11:19:32;;;;;;;5.13;3.20;;;;;;;;;;5059136;28;20440;-79
2022/06/15 11:22:02;;;;;;;3.90;3.20;;;;;;;;;;5059993;28;20445;-80
2022/06/15 11:24:35;;;;;;;3.60;3.30;;;;;;;;;;5056673;28;20476;-78
2022/06/15 11:27:04;;;;;;;3.37;3.13;;;;;;;;;;5057077;28;20446;-79
2022/06/15 11:29:52;;;;;;;3.80;3.50;;;;;;;;;;5060560;28;20438;-80
2022/06/15 11:32:37;;;;;;;3.97;3.67;;;;;;;;;;5055120;28;20457;-80
2022/06/15 11:35:10;;;;;;;3.43;3.13;;;;;;;;;;5060307;28;20481;-79
2022/06/15 11:37:44;;;;;;;3.20;2.90;;;;;;;;;;5061629;28;20433;-79
2022/06/15 11:40:17;;;;;;;6.23;3.20;;;;;;;;;;5060118;28;20881;-79
2022/06/15 11:42:48;;;;;;;3.30;3.00;;;;;;;;;;5061443;28;20686;-80
2022/06/15 11:45:15;;;;;;;5.93;3.10;;;;;;;;;;5061525;28;20497;-79
2022/06/15 11:47:48;;;;;;;3.93;3.60;;;;;;;;;;5059777;28;20442;-80
2022/06/15 11:50:18;;;;;;;8.33;3.47;;;;;;;;;;5060248;28;21042;-78
2022/06/15 11:52:56;;;;;;;3.23;2.90;;;;;;;;;;5061128;28;20441;-80
2022/06/15 11:55:29;;;;;;;2.63;2.50;;;;;;;;;;5059391;28;20469;-80
2022/06/15 11:58:09;;;;;;;3.20;3.00;;;;;;;;;;5058961;28;20453;-78
2022/06/15 12:00:38;;;;;;;4.27;2.80;;;;;;;;;;5061230;28;20726;-79
2022/06/15 12:03:22;;;;;;;3.13;2.93;;;;;;;;;;5057934;28;20442;-79
2022/06/15 12:05:52;;;;;;;3.40;3.13;;;;;;;;;;5061912;28;20449;-80
2022/06/15 12:08:28;;;;;;;3.43;3.13;;;;;;;;;;5061989;28;20430;-79
2022/06/15 12:10:59;;;;;;;4.40;2.80;;;;;;;;;;5060513;28;20496;-80
2022/06/15 12:13:35;;;;;;;2.83;2.63;;;;;;;;;;5061598;28;20456;-79
2022/06/15 12:16:06;;;;;;;4.10;2.73;;;;;;;;;;5059327;28;20481;-79
2022/06/15 12:18:42;;;;;;;2.90;2.70;;;;;;;;;;5060423;28;20481;-78
2022/06/15 12:21:15;;;;;;;4.20;2.80;;;;;;;;;;5059307;28;20472;-80
2022/06/15 12:23:43;;;;;;;3.63;2.33;;;;;;;;;;5057706;28;20480;-78
2022/06/15 12:26:19;;;;;;;5.73;3.10;;;;;;;;;;5060993;28;20945;-80
2022/06/15 12:28:49;;;;;;;3.17;2.97;;;;;;;;;;5060535;28;20499;-78
2022/06/15 12:31:20;;;;;;;3.30;3.00;;;;;;;;;;5061500;28;20457;-78
2022/06/15 12:33:50;;;;;;;2.93;2.63;;;;;;;;;;5059860;28;20442;-80
2022/06/15 12:36:19;;;;;;;3.23;2.77;;;;;;;;;;5061343;28;20517;-79
2022/06/15 12:38:51;;;;;;;3.27;2.90;;;;;;;;;;5062242;28;20449;-79
2022/06/15 12:44:12;;;;;;;3.20;2.90;;;;;;;;;;5057519;28;20421;-79
2022/06/15 12:46:39;;;;;;;2.90;2.70;;;;;;;;;;5063333;28;20468;-79
2022/06/15 12:49:23;;;;;;;5.87;3.37;;;;;;;;;;5060148;28;20453;-80
2022/06/15 12:51:57;;;;;;;2.90;2.70;;;;;;;;;;5061246;28;20449;-79
2022/06/15 12:54:34;;;;;;;4.20;2.80;;;;;;;;;;5057431;28;20446;-78
2022/06/15 12:57:05;;;;;;;3.20;3.00;;;;;;;;;;5057226;28;20473;-79
2022/06/15 12:59:41;;;;;;;3.93;2.57;;;;;;;;;;5058817;28;20514;-78
2022/06/15 13:02:11;;;;;;;3.20;2.63;;;;;;;;;;5058262;28;20449;-78
2022/06/15 13:04:41;;;;;;;3.10;2.60;;;;;;;;;;5056722;28;20437;-79
2022/06/15 13:07:19;;;;;;;3.87;2.83;;;;;;;;;;5057608;28;20449;-79
2022/06/15 13:10:01;;;;;;;3.37;3.07;;;;;;;;;;5036932;28;20504;-79
2022/06/15 13:12:36;;;;;;;3.20;2.90;;;;;;;;;;5038899;28;20442;-79
2022/06/15 13:15:03;;;;;;;3.13;2.93;;;;;;;;;;5038105;28;20449;-78
2022/06/15 13:18:05;;;;;;;5.70;3.03;;;;;;;;;;5037245;28;21009;-78
2022/06/15 13:20:33;;;;;;;3.43;2.80;;;;;;;;;;5035445;28;20573;-78
2022/06/15 13:23:00;;;;;;;3.57;3.27;;;;;;;;;;5038082;28;20442;-79
2022/06/15 13:25:27;;;;;;;3.23;2.93;;;;;;;;;;5036732;28;20446;-79
2022/06/15 13:28:09;;;;;;;2.97;2.70;;;;;;;;;;5038006;28;20924;-79
2022/06/15 13:33:46;;;;;;;3.27;2.97;;;;;;;;;;5092554;28;20502;-79
2022/06/15 13:36:22;;;;;;;3.27;3.07;;;;;;;;;;5073371;28;20445;-79
2022/06/15 13:38:50;;;;;;;2.77;2.57;;;;;;;;;;5073818;28;20487;-79
2022/06/15 13:41:22;;;;;;;3.37;2.80;;;;;;;;;;5071353;28;20715;-78
2022/06/15 13:44:10;;;;;;;6.73;2.90;;;;;;;;;;5071944;28;20964;-79
2022/06/15 13:46:39;;;;;;;3.17;2.93;;;;;;;;;;5075680;28;20440;-79
2022/06/15 13:49:08;;;;;;;3.53;3.30;;;;;;;;;;5080080;28;20433;-79
2022/06/15 13:51:38;;;;;;;4.10;2.87;;;;;;;;;;5073288;28;20550;-79
2022/06/15 13:54:13;;;;;;;3.33;3.13;;;;;;;;;;5070026;28;20524;-77
2022/06/15 13:56:47;;;;;;;3.73;3.00;;;;;;;;;;5070215;28;20589;-78
2022/06/15 13:59:23;;;;;;;3.20;3.00;;;;;;;;;;5070741;28;20581;-78
2022/06/15 14:02:06;;;;;;;3.53;3.10;;;;;;;;;;5070277;28;20448;-78
2022/06/15 14:04:45;;;;;;;2.90;2.70;;;;;;;;;;5073469;28;20490;-78
2022/06/15 14:07:19;;;;;;;5.90;3.30;;;;;;;;;;5077048;28;20475;-78
2022/06/15 14:09:53;;;;;;;3.33;2.93;;;;;;;;;;5075712;28;20459;-78
2022/06/15 14:12:27;;;;;;;4.90;2.70;;;;;;;;;;5070926;28;20476;-78
2022/06/15 14:15:08;;;;;;;3.20;2.90;;;;;;;;;;5072723;28;20437;-78
2022/06/15 14:17:44;;;;;;;6.90;2.70;;;;;;;;;;5071505;28;20478;-79
2022/06/15 14:20:12;;;;;;;3.23;3.00;;;;;;;;;;5070487;28;20661;-77
2022/06/15 14:22:47;;;;;;;5.90;3.97;;;;;;;;;;5068943;28;20445;-79
2022/06/15 14:25:16;;;;;;;7.63;3.20;;;;;;;;;;5075429;28;20440;-79
2022/06/15 14:27:43;;;;;;;3.73;3.13;;;;;;;;;;5069638;28;20447;-79
2022/06/15 14:30:20;;;;;;;3.60;3.30;;;;;;;;;;5073298;28;20461;-79
2022/06/15 14:32:47;;;;;;;3.00;2.80;;;;;;;;;;5073966;28;20825;-79
2022/06/15 14:35:19;;;;;;;3.63;3.33;;;;;;;;;;5077451;28;20437;-79
2022/06/15 14:37:50;;;;;;;3.83;3.30;;;;;;;;;;5072826;28;20862;-78
2022/06/15 14:40:27;;;;;;;3.37;2.70;;;;;;;;;;5071085;28;20491;-79
2022/06/15 14:42:57;;;;;;;4.37;3.30;;;;;;;;;;5070777;28;20441;-78
2022/06/15 14:45:26;;;;;;;4.30;2.70;;;;;;;;;;5057179;28;20433;-79
2022/06/15 14:47:54;;;;;;;2.80;2.70;;;;;;;;;;5059586;28;20506;-79
2022/06/15 14:50:21;;;;;;;3.10;2.90;;;;;;;;;;5056814;28;20519;-78
2022/06/15 14:52:50;;;;;;;5.30;3.40;;;;;;;;;;5056294;28;20474;-79
2022/06/15 14:55:19;;;;;;;4.23;3.00;;;;;;;;;;5055053;28;20454;-79
2022/06/15 14:57:46;;;;;;;6.37;3.10;;;;;;;;;;5056625;28;20453;-77
2022/06/15 15:00:20;;;;;;;3.90;3.30;;;;;;;;;;5056069;28;20454;-79
2022/06/15 15:02:48;;;;;;;4.83;3.43;;;;;;;;;;5062174;28;20488;-79
2022/06/15 15:05:16;;;;;;;3.93;3.63;;;;;;;;;;5061173;28;20445;-78
2022/06/15 15:10:31;;;;;;;4.40;3.37;;;;;;;;;;5055518;28;20928;-79
2022/06/15 15:13:15;;;;;;;6.77;3.30;;;;;;;;;;5055477;28;20481;-78
2022/06/15 15:15:43;;;;;;;3.80;3.50;;;;;;;;;;5056726;28;20617;-77
2022/06/15 15:18:12;;;;;;;3.87;3.23;;;;;;;;;;5058399;28;20441;-78
2022/06/15 15:20:40;;;;;;;3.47;3.17;;;;;;;;;;5056539;28;20507;-79
2022/06/15 15:23:08;;;;;;;3.73;3.50;;;;;;;;;;5059439;28;20437;-78
2022/06/15 15:25:53;;;;;;;3.40;3.20;;;;;;;;;;5060512;28;20794;-79
2022/06/15 15:34:10;;;;;;;3.30;3.10;;;;;;;;;;5061682;28;20842;-79